sensor_id;sensor_type;location;lat;lon;timestamp;pressure;altitude;pressure_sealevel;temperature
48003;BMP280;33768;48.578;11.574;2023-12-29T00:00:36;96549.47;;;7.56
48003;BMP280;33768;48.578;11.574;2023-12-29T00:03:41;96532.94;;;7.49
48003;BMP280;33768;48.578;11.574;2023-12-29T00:06:45;96539.38;;;7.46
48003;BMP280;33768;48.578;11.574;2023-12-29T00:09:50;96537.16;;;7.45
48003;BMP280;33768;48.578;11.574;2023-12-29T00:12:55;96534.69;;;7.47
48003;BMP280;33768;48.578;11.574;2023-12-29T00:15:59;96545.03;;;7.48
48003;BMP280;33768;48.578;11.574;2023-12-29T00:19:03;96536.69;;;7.46
48003;BMP280;33768;48.578;11.574;2023-12-29T00:22:08;96537.16;;;7.45
48003;BMP280;33768;48.578;11.574;2023-12-29T00:25:12;96530.75;;;7.42
48003;BMP280;33768;48.578;11.574;2023-12-29T00:28:16;96541.34;;;7.46
48003;BMP280;33768;48.578;11.574;2023-12-29T00:31:20;96535.66;;;7.49
48003;BMP280;33768;48.578;11.574;2023-12-29T00:34:24;96537.38;;;7.52
48003;BMP280;33768;48.578;11.574;2023-12-29T00:37:28;96540.81;;;7.52
48003;BMP280;33768;48.578;11.574;2023-12-29T00:40:33;96545.03;;;7.53
48003;BMP280;33768;48.578;11.574;2023-12-29T00:43:37;96536.13;;;7.53
48003;BMP280;33768;48.578;11.574;2023-12-29T00:46:42;96543.06;;;7.54
48003;BMP280;33768;48.578;11.574;2023-12-29T00:49:46;96540.84;;;7.47
48003;BMP280;33768;48.578;11.574;2023-12-29T00:52:50;96538.91;;;7.42
48003;BMP280;33768;48.578;11.574;2023-12-29T00:55:54;96535.50;;;7.36
48003;BMP280;33768;48.578;11.574;2023-12-29T00:58:59;96535.25;;;7.34
48003;BMP280;33768;48.578;11.574;2023-12-29T01:02:03;96530.81;;;7.31
48003;BMP280;33768;48.578;11.574;2023-12-29T01:05:07;96532.28;;;7.32
48003;BMP280;33768;48.578;11.574;2023-12-29T01:08:11;96518.25;;;7.28
48003;BMP280;33768;48.578;11.574;2023-12-29T01:11:15;96529.09;;;7.28
48003;BMP280;33768;48.578;11.574;2023-12-29T01:14:20;96525.66;;;7.22
48003;BMP280;33768;48.578;11.574;2023-12-29T01:17:24;96511.88;;;7.15
48003;BMP280;33768;48.578;11.574;2023-12-29T01:20:28;96529.13;;;7.17
48003;BMP280;33768;48.578;11.574;2023-12-29T01:23:32;96543.44;;;7.18
48003;BMP280;33768;48.578;11.574;2023-12-29T01:26:37;96536.56;;;7.12
48003;BMP280;33768;48.578;11.574;2023-12-29T01:29:41;96546.72;;;7.06
48003;BMP280;33768;48.578;11.574;2023-12-29T01:32:46;96554.63;;;7.04
48003;BMP280;33768;48.578;11.574;2023-12-29T01:35:50;96544.72;;;7.12
48003;BMP280;33768;48.578;11.574;2023-12-29T01:38:54;96543.72;;;7.15
48003;BMP280;33768;48.578;11.574;2023-12-29T01:41:58;96545.44;;;7.12
48003;BMP280;33768;48.578;11.574;2023-12-29T01:45:05;96550.91;;;7.07
48003;BMP280;33768;48.578;11.574;2023-12-29T01:48:09;96547.22;;;6.99
48003;BMP280;33768;48.578;11.574;2023-12-29T01:51:14;96543.81;;;6.93
48003;BMP280;33768;48.578;11.574;2023-12-29T01:54:20;96542.31;;;6.92
48003;BMP280;33768;48.578;11.574;2023-12-29T01:57:24;96527.03;;;6.89
48003;BMP280;33768;48.578;11.574;2023-12-29T02:00:29;96529.50;;;6.87
48003;BMP280;33768;48.578;11.574;2023-12-29T02:03:34;96527.50;;;6.87
48003;BMP280;33768;48.578;11.574;2023-12-29T02:06:39;96522.84;;;6.88
48003;BMP280;33768;48.578;11.574;2023-12-29T02:09:44;96521.59;;;6.89
48003;BMP280;33768;48.578;11.574;2023-12-29T02:12:50;96513.72;;;6.91
48003;BMP280;33768;48.578;11.574;2023-12-29T02:15:57;96521.59;;;6.94
48003;BMP280;33768;48.578;11.574;2023-12-29T02:19:18;96514.66;;;6.99
48003;BMP280;33768;48.578;11.574;2023-12-29T02:22:24;96494.66;;;7.02
48003;BMP280;33768;48.578;11.574;2023-12-29T02:25:29;96495.38;;;7.08
48003;BMP280;33768;48.578;11.574;2023-12-29T02:28:35;96486.50;;;7.07
48003;BMP280;33768;48.578;11.574;2023-12-29T02:31:45;96492.88;;;7.15
48003;BMP280;33768;48.578;11.574;2023-12-29T02:34:52;96485.47;;;7.16
48003;BMP280;33768;48.578;11.574;2023-12-29T02:37:56;96486.72;;;7.15
48003;BMP280;33768;48.578;11.574;2023-12-29T02:41:01;96482.53;;;7.14
48003;BMP280;33768;48.578;11.574;2023-12-29T02:44:05;96488.97;;;7.11
48003;BMP280;33768;48.578;11.574;2023-12-29T02:47:10;96483.53;;;7.11
48003;BMP280;33768;48.578;11.574;2023-12-29T02:50:15;96468.97;;;7.14
48003;BMP280;33768;48.578;11.574;2023-12-29T02:53:20;96475.84;;;7.15
48003;BMP280;33768;48.578;11.574;2023-12-29T02:56:24;96468.72;;;7.12
48003;BMP280;33768;48.578;11.574;2023-12-29T02:59:28;96461.59;;;7.09
48003;BMP280;33768;48.578;11.574;2023-12-29T03:02:32;96463.34;;;7.01
48003;BMP280;33768;48.578;11.574;2023-12-29T03:05:37;96460.63;;;6.95
48003;BMP280;33768;48.578;11.574;2023-12-29T03:08:41;96445.88;;;6.91
48003;BMP280;33768;48.578;11.574;2023-12-29T03:11:45;96449.34;;;6.86
48003;BMP280;33768;48.578;11.574;2023-12-29T03:14:49;96444.69;;;6.81
48003;BMP280;33768;48.578;11.574;2023-12-29T03:17:54;96442.47;;;6.74
48003;BMP280;33768;48.578;11.574;2023-12-29T03:20:59;96441.78;;;6.68
48003;BMP280;33768;48.578;11.574;2023-12-29T03:24:03;96443.75;;;6.62
48003;BMP280;33768;48.578;11.574;2023-12-29T03:27:07;96463.50;;;6.57
48003;BMP280;33768;48.578;11.574;2023-12-29T03:30:15;96446.75;;;6.54
48003;BMP280;33768;48.578;11.574;2023-12-29T03:33:21;96458.81;;;6.53
48003;BMP280;33768;48.578;11.574;2023-12-29T03:36:26;96452.44;;;6.50
48003;BMP280;33768;48.578;11.574;2023-12-29T03:39:30;96449.94;;;6.52
48003;BMP280;33768;48.578;11.574;2023-12-29T03:42:34;96438.34;;;6.57
48003;BMP280;33768;48.578;11.574;2023-12-29T03:45:39;96441.56;;;6.55
48003;BMP280;33768;48.578;11.574;2023-12-29T03:48:44;96441.34;;;6.54
48003;BMP280;33768;48.578;11.574;2023-12-29T03:51:48;96442.34;;;6.51
48003;BMP280;33768;48.578;11.574;2023-12-29T03:54:53;96435.91;;;6.54
48003;BMP280;33768;48.578;11.574;2023-12-29T03:57:57;96440.09;;;6.54
48003;BMP280;33768;48.578;11.574;2023-12-29T04:01:02;96441.78;;;6.57
48003;BMP280;33768;48.578;11.574;2023-12-29T04:04:07;96437.88;;;6.58
48003;BMP280;33768;48.578;11.574;2023-12-29T04:07:12;96431.72;;;6.58
48003;BMP280;33768;48.578;11.574;2023-12-29T04:10:16;96442.28;;;6.61
48003;BMP280;33768;48.578;11.574;2023-12-29T04:13:20;96445.25;;;6.63
48003;BMP280;33768;48.578;11.574;2023-12-29T04:16:24;96434.13;;;6.67
48003;BMP280;33768;48.578;11.574;2023-12-29T04:19:28;96439.78;;;6.74
48003;BMP280;33768;48.578;11.574;2023-12-29T04:22:33;96427.91;;;6.77
48003;BMP280;33768;48.578;11.574;2023-12-29T04:25:38;96432.34;;;6.80
48003;BMP280;33768;48.578;11.574;2023-12-29T04:28:43;96428.41;;;6.81
48003;BMP280;33768;48.578;11.574;2023-12-29T04:31:49;96437.28;;;6.82
48003;BMP280;33768;48.578;11.574;2023-12-29T04:34:53;96436.28;;;6.85
48003;BMP280;33768;48.578;11.574;2023-12-29T04:37:57;96437.00;;;6.85
48003;BMP280;33768;48.578;11.574;2023-12-29T04:41:02;96430.13;;;6.84
48003;BMP280;33768;48.578;11.574;2023-12-29T04:44:07;96422.72;;;6.85
48003;BMP280;33768;48.578;11.574;2023-12-29T04:47:11;96433.06;;;6.86
48003;BMP280;33768;48.578;11.574;2023-12-29T04:50:15;96421.69;;;6.87
48003;BMP280;33768;48.578;11.574;2023-12-29T04:53:19;96431.81;;;6.87
48003;BMP280;33768;48.578;11.574;2023-12-29T04:56:23;96431.56;;;6.85
48003;BMP280;33768;48.578;11.574;2023-12-29T04:59:27;96434.28;;;6.85
48003;BMP280;33768;48.578;11.574;2023-12-29T05:02:32;96442.22;;;6.83
48003;BMP280;33768;48.578;11.574;2023-12-29T05:05:36;96433.84;;;6.76
48003;BMP280;33768;48.578;11.574;2023-12-29T05:08:40;96433.88;;;6.70
48003;BMP280;33768;48.578;11.574;2023-12-29T05:11:45;96422.56;;;6.61
48003;BMP280;33768;48.578;11.574;2023-12-29T05:14:49;96429.25;;;6.54
48003;BMP280;33768;48.578;11.574;2023-12-29T05:17:53;96436.19;;;6.50
48003;BMP280;33768;48.578;11.574;2023-12-29T05:20:59;96441.84;;;6.47
48003;BMP280;33768;48.578;11.574;2023-12-29T05:24:03;96440.63;;;6.48
48003;BMP280;33768;48.578;11.574;2023-12-29T05:27:09;96430.25;;;6.52
48003;BMP280;33768;48.578;11.574;2023-12-29T05:30:13;96427.03;;;6.53
48003;BMP280;33768;48.578;11.574;2023-12-29T05:33:18;96444.50;;;6.57
48003;BMP280;33768;48.578;11.574;2023-12-29T05:36:22;96453.13;;;6.61
48003;BMP280;33768;48.578;11.574;2023-12-29T05:39:26;96446.47;;;6.62
48003;BMP280;33768;48.578;11.574;2023-12-29T05:42:30;96459.28;;;6.62
48003;BMP280;33768;48.578;11.574;2023-12-29T05:45:35;96446.72;;;6.64
48003;BMP280;33768;48.578;11.574;2023-12-29T05:48:39;96436.59;;;6.70
48003;BMP280;33768;48.578;11.574;2023-12-29T05:51:44;96444.94;;;6.78
48003;BMP280;33768;48.578;11.574;2023-12-29T05:54:48;96447.84;;;6.85
48003;BMP280;33768;48.578;11.574;2023-12-29T05:57:54;96444.91;;;6.88
48003;BMP280;33768;48.578;11.574;2023-12-29T06:00:58;96447.09;;;6.90
48003;BMP280;33768;48.578;11.574;2023-12-29T06:04:05;96450.06;;;6.92
48003;BMP280;33768;48.578;11.574;2023-12-29T06:07:09;96445.13;;;6.96
48003;BMP280;33768;48.578;11.574;2023-12-29T06:10:13;96446.09;;;6.98
48003;BMP280;33768;48.578;11.574;2023-12-29T06:13:17;96445.56;;;7.00
48003;BMP280;33768;48.578;11.574;2023-12-29T06:16:22;96440.41;;;6.96
48003;BMP280;33768;48.578;11.574;2023-12-29T06:19:27;96446.13;;;6.93
48003;BMP280;33768;48.578;11.574;2023-12-29T06:22:32;96453.00;;;6.94
48003;BMP280;33768;48.578;11.574;2023-12-29T06:25:36;96453.00;;;6.94
48003;BMP280;33768;48.578;11.574;2023-12-29T06:28:41;96452.53;;;6.90
48003;BMP280;33768;48.578;11.574;2023-12-29T06:31:46;96449.06;;;6.89
48003;BMP280;33768;48.578;11.574;2023-12-29T06:34:50;96445.16;;;6.85
48003;BMP280;33768;48.578;11.574;2023-12-29T06:37:54;96432.59;;;6.82
48003;BMP280;33768;48.578;11.574;2023-12-29T06:41:00;96442.72;;;6.76
48003;BMP280;33768;48.578;11.574;2023-12-29T06:44:04;96441.22;;;6.75
48003;BMP280;33768;48.578;11.574;2023-12-29T06:47:08;96444.44;;;6.79
48003;BMP280;33768;48.578;11.574;2023-12-29T06:50:13;96444.44;;;6.79
48003;BMP280;33768;48.578;11.574;2023-12-29T06:53:17;96459.25;;;6.78
48003;BMP280;33768;48.578;11.574;2023-12-29T06:56:21;96454.81;;;6.75
48003;BMP280;33768;48.578;11.574;2023-12-29T06:59:26;96460.50;;;6.72
48003;BMP280;33768;48.578;11.574;2023-12-29T07:02:31;96443.75;;;6.68
48003;BMP280;33768;48.578;11.574;2023-12-29T07:05:35;96451.38;;;6.69
48003;BMP280;33768;48.578;11.574;2023-12-29T07:08:39;96450.41;;;6.67
48003;BMP280;33768;48.578;11.574;2023-12-29T07:12:08;96465.41;;;6.79
48003;BMP280;33768;48.578;11.574;2023-12-29T07:15:13;96461.91;;;6.89
48003;BMP280;33768;48.578;11.574;2023-12-29T07:18:20;96459.16;;;6.94
48003;BMP280;33768;48.578;11.574;2023-12-29T07:21:26;96448.03;;;6.98
48003;BMP280;33768;48.578;11.574;2023-12-29T07:24:30;96465.81;;;6.99
48003;BMP280;33768;48.578;11.574;2023-12-29T07:27:34;96462.09;;;7.02
48003;BMP280;33768;48.578;11.574;2023-12-29T07:30:38;96465.53;;;7.02
48003;BMP280;33768;48.578;11.574;2023-12-29T07:33:43;96458.13;;;7.08
48003;BMP280;33768;48.578;11.574;2023-12-29T07:36:47;96463.75;;;7.16
48003;BMP280;33768;48.578;11.574;2023-12-29T07:39:52;96460.50;;;7.22
48003;BMP280;33768;48.578;11.574;2023-12-29T07:42:56;96470.56;;;7.33
48003;BMP280;33768;48.578;11.574;2023-12-29T07:46:00;96473.25;;;7.44
48003;BMP280;33768;48.578;11.574;2023-12-29T07:49:04;96484.31;;;7.51
48003;BMP280;33768;48.578;11.574;2023-12-29T07:52:09;96486.41;;;7.69
48003;BMP280;33768;48.578;11.574;2023-12-29T07:55:13;96488.03;;;7.82
48003;BMP280;33768;48.578;11.574;2023-12-29T07:58:17;96492.59;;;7.98
48003;BMP280;33768;48.578;11.574;2023-12-29T08:01:21;96486.34;;;8.14
48003;BMP280;33768;48.578;11.574;2023-12-29T08:04:26;96500.06;;;8.27
48003;BMP280;33768;48.578;11.574;2023-12-29T08:07:30;96484.66;;;8.35
48003;BMP280;33768;48.578;11.574;2023-12-29T08:10:34;96482.06;;;8.47
48003;BMP280;33768;48.578;11.574;2023-12-29T08:13:38;96478.56;;;8.52
48003;BMP280;33768;48.578;11.574;2023-12-29T08:16:44;96467.09;;;8.59
48003;BMP280;33768;48.578;11.574;2023-12-29T08:19:49;96462.50;;;8.73
48003;BMP280;33768;48.578;11.574;2023-12-29T08:22:53;96469.34;;;8.79
48003;BMP280;33768;48.578;11.574;2023-12-29T08:25:57;96464.78;;;8.87
48003;BMP280;33768;48.578;11.574;2023-12-29T08:29:02;96475.19;;;8.88
48003;BMP280;33768;48.578;11.574;2023-12-29T08:32:07;96479.25;;;9.00
48003;BMP280;33768;48.578;11.574;2023-12-29T08:35:11;96469.03;;;9.06
48003;BMP280;33768;48.578;11.574;2023-12-29T08:38:15;96461.66;;;9.01
48003;BMP280;33768;48.578;11.574;2023-12-29T08:41:20;96477.91;;;9.06
48003;BMP280;33768;48.578;11.574;2023-12-29T08:44:27;96491.75;;;9.08
48003;BMP280;33768;48.578;11.574;2023-12-29T08:47:35;96469.97;;;9.08
48003;BMP280;33768;48.578;11.574;2023-12-29T08:50:39;96470.59;;;9.20
48003;BMP280;33768;48.578;11.574;2023-12-29T08:53:43;96472.63;;;9.32
48003;BMP280;33768;48.578;11.574;2023-12-29T08:56:47;96475.16;;;9.30
48003;BMP280;33768;48.578;11.574;2023-12-29T08:59:52;96475.31;;;9.37
48003;BMP280;33768;48.578;11.574;2023-12-29T09:02:56;96478.47;;;9.41
48003;BMP280;33768;48.578;11.574;2023-12-29T09:06:00;96473.53;;;9.40
48003;BMP280;33768;48.578;11.574;2023-12-29T09:09:06;96485.44;;;9.37
48003;BMP280;33768;48.578;11.574;2023-12-29T09:12:11;96487.91;;;9.40
48003;BMP280;33768;48.578;11.574;2023-12-29T09:15:15;96490.53;;;9.46
48003;BMP280;33768;48.578;11.574;2023-12-29T09:18:20;96485.75;;;9.52
48003;BMP280;33768;48.578;11.574;2023-12-29T09:21:24;96476.97;;;9.59
48003;BMP280;33768;48.578;11.574;2023-12-29T09:24:28;96493.41;;;9.71
48003;BMP280;33768;48.578;11.574;2023-12-29T09:27:33;96495.53;;;9.78
48003;BMP280;33768;48.578;11.574;2023-12-29T09:30:37;96501.56;;;9.90
48003;BMP280;33768;48.578;11.574;2023-12-29T09:33:42;96488.75;;;10.03
48003;BMP280;33768;48.578;11.574;2023-12-29T09:36:46;96496.28;;;10.10
48003;BMP280;33768;48.578;11.574;2023-12-29T09:39:50;96495.19;;;10.18
48003;BMP280;33768;48.578;11.574;2023-12-29T09:42:55;96487.53;;;10.30
48003;BMP280;33768;48.578;11.574;2023-12-29T09:45:59;96498.69;;;10.44
48003;BMP280;33768;48.578;11.574;2023-12-29T09:49:06;96500.28;;;10.53
48003;BMP280;33768;48.578;11.574;2023-12-29T09:52:12;96501.56;;;10.77
48003;BMP280;33768;48.578;11.574;2023-12-29T09:55:17;96498.13;;;11.02
48003;BMP280;33768;48.578;11.574;2023-12-29T09:58:23;96488.53;;;11.34
48003;BMP280;33768;48.578;11.574;2023-12-29T10:01:29;96483.78;;;11.48
48003;BMP280;33768;48.578;11.574;2023-12-29T10:04:34;96484.00;;;11.50
48003;BMP280;33768;48.578;11.574;2023-12-29T10:07:40;96479.47;;;11.52
48003;BMP280;33768;48.578;11.574;2023-12-29T10:10:46;96472.53;;;11.51
48003;BMP280;33768;48.578;11.574;2023-12-29T10:13:54;96474.31;;;11.49
48003;BMP280;33768;48.578;11.574;2023-12-29T10:17:19;96468.47;;;11.45
48003;BMP280;33768;48.578;11.574;2023-12-29T10:24:10;96468.00;;;11.54
48003;BMP280;33768;48.578;11.574;2023-12-29T10:27:16;96469.72;;;11.77
48003;BMP280;33768;48.578;11.574;2023-12-29T10:30:21;96467.13;;;11.91
48003;BMP280;33768;48.578;11.574;2023-12-29T10:33:25;96459.78;;;11.87
48003;BMP280;33768;48.578;11.574;2023-12-29T10:36:46;96456.78;;;11.77
48003;BMP280;33768;48.578;11.574;2023-12-29T10:39:58;96458.78;;;11.77
48003;BMP280;33768;48.578;11.574;2023-12-29T10:43:02;96460.34;;;11.85
48003;BMP280;33768;48.578;11.574;2023-12-29T10:46:11;96444.63;;;11.65
48003;BMP280;33768;48.578;11.574;2023-12-29T10:49:17;96449.69;;;11.61
48003;BMP280;33768;48.578;11.574;2023-12-29T10:52:23;96443.81;;;11.57
48003;BMP280;33768;48.578;11.574;2023-12-29T10:55:31;96456.00;;;11.56
48003;BMP280;33768;48.578;11.574;2023-12-29T10:58:36;96451.47;;;11.59
48003;BMP280;33768;48.578;11.574;2023-12-29T11:01:41;96444.75;;;11.60
48003;BMP280;33768;48.578;11.574;2023-12-29T11:04:45;96441.09;;;11.57
48003;BMP280;33768;48.578;11.574;2023-12-29T11:07:49;96440.88;;;11.56
48003;BMP280;33768;48.578;11.574;2023-12-29T11:10:54;96440.53;;;11.59
48003;BMP280;33768;48.578;11.574;2023-12-29T11:13:59;96432.03;;;11.62
48003;BMP280;33768;48.578;11.574;2023-12-29T11:17:04;96422.34;;;11.61
48003;BMP280;33768;48.578;11.574;2023-12-29T11:20:11;96425.50;;;11.65
48003;BMP280;33768;48.578;11.574;2023-12-29T11:23:16;96412.91;;;11.62
48003;BMP280;33768;48.578;11.574;2023-12-29T11:26:20;96421.09;;;11.62
48003;BMP280;33768;48.578;11.574;2023-12-29T11:29:25;96422.03;;;11.65
48003;BMP280;33768;48.578;11.574;2023-12-29T11:32:42;96404.06;;;11.56
48003;BMP280;33768;48.578;11.574;2023-12-29T11:36:12;96390.41;;;11.56
48003;BMP280;33768;48.578;11.574;2023-12-29T11:39:29;96384.50;;;11.65
48003;BMP280;33768;48.578;11.574;2023-12-29T11:42:40;96383.28;;;11.74
48003;BMP280;33768;48.578;11.574;2023-12-29T11:45:45;96381.25;;;11.87
48003;BMP280;33768;48.578;11.574;2023-12-29T11:48:53;96376.00;;;11.96
48003;BMP280;33768;48.578;11.574;2023-12-29T11:52:07;96380.22;;;11.77
48003;BMP280;33768;48.578;11.574;2023-12-29T11:55:13;96373.63;;;11.73
48003;BMP280;33768;48.578;11.574;2023-12-29T11:58:26;96366.34;;;11.75
48003;BMP280;33768;48.578;11.574;2023-12-29T12:01:36;96363.69;;;11.83
48003;BMP280;33768;48.578;11.574;2023-12-29T12:04:41;96365.88;;;11.84
48003;BMP280;33768;48.578;11.574;2023-12-29T12:10:49;96358.50;;;11.92
48003;BMP280;33768;48.578;11.574;2023-12-29T12:13:53;96356.72;;;12.02
48003;BMP280;33768;48.578;11.574;2023-12-29T12:16:58;96348.84;;;11.98
48003;BMP280;33768;48.578;11.574;2023-12-29T12:20:09;96341.38;;;11.99
48003;BMP280;33768;48.578;11.574;2023-12-29T12:23:17;96353.41;;;11.96
48003;BMP280;33768;48.578;11.574;2023-12-29T12:26:23;96349.66;;;11.86
48003;BMP280;33768;48.578;11.574;2023-12-29T12:29:30;96331.81;;;11.85
48003;BMP280;33768;48.578;11.574;2023-12-29T12:32:35;96345.69;;;11.87
48003;BMP280;33768;48.578;11.574;2023-12-29T12:35:39;96342.69;;;11.78
48003;BMP280;33768;48.578;11.574;2023-12-29T12:38:53;96342.97;;;11.67
48003;BMP280;33768;48.578;11.574;2023-12-29T12:41:59;96347.81;;;11.61
48003;BMP280;33768;48.578;11.574;2023-12-29T12:45:12;96352.13;;;11.56
48003;BMP280;33768;48.578;11.574;2023-12-29T12:48:20;96355.94;;;11.54
48003;BMP280;33768;48.578;11.574;2023-12-29T12:51:26;96365.84;;;11.44
48003;BMP280;33768;48.578;11.574;2023-12-29T12:54:30;96359.88;;;11.45
48003;BMP280;33768;48.578;11.574;2023-12-29T12:57:36;96361.97;;;11.39
48003;BMP280;33768;48.578;11.574;2023-12-29T13:00:41;96360.41;;;11.31
48003;BMP280;33768;48.578;11.574;2023-12-29T13:03:45;96360.22;;;11.29
48003;BMP280;33768;48.578;11.574;2023-12-29T13:06:49;96349.31;;;11.29
48003;BMP280;33768;48.578;11.574;2023-12-29T13:09:55;96358.16;;;11.22
48003;BMP280;33768;48.578;11.574;2023-12-29T13:13:00;96362.13;;;11.21
48003;BMP280;33768;48.578;11.574;2023-12-29T13:16:04;96371.00;;;11.14
48003;BMP280;33768;48.578;11.574;2023-12-29T13:19:19;96358.72;;;11.08
48003;BMP280;33768;48.578;11.574;2023-12-29T13:22:24;96361.97;;;11.06
48003;BMP280;33768;48.578;11.574;2023-12-29T13:25:27;96363.00;;;11.03
48003;BMP280;33768;48.578;11.574;2023-12-29T13:28:32;96355.88;;;11.00
48003;BMP280;33768;48.578;11.574;2023-12-29T13:31:37;96364.28;;;11.02
48003;BMP280;33768;48.578;11.574;2023-12-29T13:35:16;96348.97;;;10.99
48003;BMP280;33768;48.578;11.574;2023-12-29T13:38:19;96353.38;;;11.02
48003;BMP280;33768;48.578;11.574;2023-12-29T13:41:25;96350.63;;;11.02
48003;BMP280;33768;48.578;11.574;2023-12-29T13:44:33;96343.38;;;11.05
48003;BMP280;33768;48.578;11.574;2023-12-29T13:47:38;96346.63;;;11.03
48003;BMP280;33768;48.578;11.574;2023-12-29T13:50:49;96346.84;;;11.05
48003;BMP280;33768;48.578;11.574;2023-12-29T13:54:00;96342.22;;;11.00
48003;BMP280;33768;48.578;11.574;2023-12-29T13:57:04;96325.03;;;10.93
48003;BMP280;33768;48.578;11.574;2023-12-29T14:00:26;96341.53;;;10.87
48003;BMP280;33768;48.578;11.574;2023-12-29T14:03:58;96341.13;;;10.83
48003;BMP280;33768;48.578;11.574;2023-12-29T14:07:02;96334.19;;;10.82
48003;BMP280;33768;48.578;11.574;2023-12-29T14:10:06;96335.25;;;10.79
48003;BMP280;33768;48.578;11.574;2023-12-29T14:13:15;96329.59;;;10.77
48003;BMP280;33768;48.578;11.574;2023-12-29T14:16:19;96332.44;;;10.72
48003;BMP280;33768;48.578;11.574;2023-12-29T14:19:24;96333.78;;;10.65
48003;BMP280;33768;48.578;11.574;2023-12-29T14:22:29;96337.38;;;10.61
48003;BMP280;33768;48.578;11.574;2023-12-29T14:25:34;96346.09;;;10.59
48003;BMP280;33768;48.578;11.574;2023-12-29T14:28:39;96359.84;;;10.54
48003;BMP280;33768;48.578;11.574;2023-12-29T14:31:45;96355.13;;;10.54
48003;BMP280;33768;48.578;11.574;2023-12-29T14:34:49;96343.16;;;10.44
48003;BMP280;33768;48.578;11.574;2023-12-29T14:37:59;96355.13;;;10.41
48003;BMP280;33768;48.578;11.574;2023-12-29T14:41:03;96361.44;;;10.36
48003;BMP280;33768;48.578;11.574;2023-12-29T14:44:07;96349.34;;;10.32
48003;BMP280;33768;48.578;11.574;2023-12-29T14:47:13;96354.41;;;10.28
48003;BMP280;33768;48.578;11.574;2023-12-29T14:50:17;96351.03;;;10.22
48003;BMP280;33768;48.578;11.574;2023-12-29T14:53:21;96343.19;;;10.19
48003;BMP280;33768;48.578;11.574;2023-12-29T14:56:25;96340.00;;;10.15
48003;BMP280;33768;48.578;11.574;2023-12-29T14:59:30;96351.25;;;10.11
48003;BMP280;33768;48.578;11.574;2023-12-29T15:02:34;96353.63;;;10.02
48003;BMP280;33768;48.578;11.574;2023-12-29T15:05:38;96347.56;;;9.96
48003;BMP280;33768;48.578;11.574;2023-12-29T15:08:43;96354.88;;;9.88
48003;BMP280;33768;48.578;11.574;2023-12-29T15:11:48;96357.25;;;9.79
48003;BMP280;33768;48.578;11.574;2023-12-29T15:14:53;96356.06;;;9.74
48003;BMP280;33768;48.578;11.574;2023-12-29T15:17:58;96363.28;;;9.72
48003;BMP280;33768;48.578;11.574;2023-12-29T15:21:02;96366.34;;;9.68
48003;BMP280;33768;48.578;11.574;2023-12-29T15:24:06;96366.44;;;9.63
48003;BMP280;33768;48.578;11.574;2023-12-29T15:27:10;96364.00;;;9.60
48003;BMP280;33768;48.578;11.574;2023-12-29T15:30:15;96361.81;;;9.58
48003;BMP280;33768;48.578;11.574;2023-12-29T15:33:19;96358.94;;;9.51
48003;BMP280;33768;48.578;11.574;2023-12-29T15:36:23;96351.59;;;9.46
48003;BMP280;33768;48.578;11.574;2023-12-29T15:39:28;96350.72;;;9.38
48003;BMP280;33768;48.578;11.574;2023-12-29T15:42:32;96344.13;;;9.34
48003;BMP280;33768;48.578;11.574;2023-12-29T15:45:37;96345.06;;;9.36
48003;BMP280;33768;48.578;11.574;2023-12-29T15:48:42;96341.63;;;9.36
48003;BMP280;33768;48.578;11.574;2023-12-29T15:51:46;96354.78;;;9.32
48003;BMP280;33768;48.578;11.574;2023-12-29T15:54:50;96341.97;;;9.27
48003;BMP280;33768;48.578;11.574;2023-12-29T15:57:54;96347.00;;;9.23
48003;BMP280;33768;48.578;11.574;2023-12-29T16:00:58;96340.84;;;9.22
48003;BMP280;33768;48.578;11.574;2023-12-29T16:04:02;96344.56;;;9.19
48003;BMP280;33768;48.578;11.574;2023-12-29T16:07:07;96337.66;;;9.18
48003;BMP280;33768;48.578;11.574;2023-12-29T16:10:11;96343.09;;;9.18
48003;BMP280;33768;48.578;11.574;2023-12-29T16:13:15;96347.81;;;9.18
48003;BMP280;33768;48.578;11.574;2023-12-29T16:16:19;96346.13;;;9.15
48003;BMP280;33768;48.578;11.574;2023-12-29T16:19:24;96358.78;;;9.12
48003;BMP280;33768;48.578;11.574;2023-12-29T16:22:29;96338.69;;;9.15
48003;BMP280;33768;48.578;11.574;2023-12-29T16:25:34;96345.19;;;9.12
48003;BMP280;33768;48.578;11.574;2023-12-29T16:28:39;96348.19;;;9.09
48003;BMP280;33768;48.578;11.574;2023-12-29T16:31:46;96354.38;;;9.09
48003;BMP280;33768;48.578;11.574;2023-12-29T16:34:51;96345.78;;;9.05
48003;BMP280;33768;48.578;11.574;2023-12-29T16:37:55;96342.81;;;9.04
48003;BMP280;33768;48.578;11.574;2023-12-29T16:40:59;96335.91;;;9.03
48003;BMP280;33768;48.578;11.574;2023-12-29T16:44:03;96334.44;;;9.02
48003;BMP280;33768;48.578;11.574;2023-12-29T16:47:09;96339.69;;;9.00
48003;BMP280;33768;48.578;11.574;2023-12-29T16:50:14;96335.56;;;8.93
48003;BMP280;33768;48.578;11.574;2023-12-29T16:53:19;96333.88;;;8.90
48003;BMP280;33768;48.578;11.574;2023-12-29T16:56:23;96330.19;;;8.88
48003;BMP280;33768;48.578;11.574;2023-12-29T16:59:27;96335.72;;;8.82
48003;BMP280;33768;48.578;11.574;2023-12-29T17:02:31;96326.38;;;8.78
48003;BMP280;33768;48.578;11.574;2023-12-29T17:05:36;96331.34;;;8.74
48003;BMP280;33768;48.578;11.574;2023-12-29T17:08:40;96328.28;;;8.65
48003;BMP280;33768;48.578;11.574;2023-12-29T17:11:44;96327.81;;;8.61
48003;BMP280;33768;48.578;11.574;2023-12-29T17:14:48;96323.72;;;8.54
48003;BMP280;33768;48.578;11.574;2023-12-29T17:17:53;96317.31;;;8.52
48003;BMP280;33768;48.578;11.574;2023-12-29T17:20:57;96307.25;;;8.47
48003;BMP280;33768;48.578;11.574;2023-12-29T17:24:01;96315.44;;;8.42
48003;BMP280;33768;48.578;11.574;2023-12-29T17:27:05;96301.13;;;8.41
48003;BMP280;33768;48.578;11.574;2023-12-29T17:30:12;96303.56;;;8.44
48003;BMP280;33768;48.578;11.574;2023-12-29T17:33:17;96297.38;;;8.44
48003;BMP280;33768;48.578;11.574;2023-12-29T17:36:21;96293.69;;;8.42
48003;BMP280;33768;48.578;11.574;2023-12-29T17:39:26;96296.88;;;8.45
48003;BMP280;33768;48.578;11.574;2023-12-29T17:42:30;96297.81;;;8.48
48003;BMP280;33768;48.578;11.574;2023-12-29T17:45:34;96290.84;;;8.52
48003;BMP280;33768;48.578;11.574;2023-12-29T17:48:38;96294.59;;;8.49